Time;durP1;ratioP1;P1;durP2;ratioP2;P2;SDS_P1;SDS_P2;PMS_P1;PMS_P2;Temp;Humidity;BMP_temperature;BMP_pressure;BME280_temperature;BME280_humidity;BME280_pressure;Samples;Min_cycle;Max_cycle;Signal;HPM_P1;HPM_P2
2021/12/10 00:01:57;;;;;;;67.97;25.48;;;2.60;90.10;;;;;;4961912;28;20031;-67
2021/12/10 00:04:29;;;;;;;70.57;25.13;;;2.70;89.70;;;;;;4967533;28;20113;-67
2021/12/10 00:07:01;;;;;;;68.57;24.98;;;2.60;90.10;;;;;;4967646;28;20041;-68
2021/12/10 00:09:49;;;;;;;64.82;23.95;;;2.60;90.30;;;;;;4964562;28;20264;-68
2021/12/10 00:12:22;;;;;;;68.18;24.08;;;2.60;90.30;;;;;;4976046;28;20488;-68
2021/12/10 00:14:48;;;;;;;69.22;25.33;;;2.50;90.30;;;;;;4962660;28;20039;-68
2021/12/10 00:17:15;;;;;;;71.63;24.90;;;2.50;90.50;;;;;;4968454;28;20033;-68
2021/12/10 00:19:47;;;;;;;66.55;24.23;;;2.50;90.50;;;;;;4966086;28;20034;-67
2021/12/10 00:22:34;;;;;;;69.20;25.08;;;2.60;90.40;;;;;;4959594;28;20035;-67
2021/12/10 00:25:01;;;;;;;70.78;24.73;;;2.60;90.30;;;;;;4962337;28;20301;-68
2021/12/10 00:27:29;;;;;;;70.70;24.77;;;2.60;90.40;;;;;;4951371;28;20134;-67
2021/12/10 00:30:05;;;;;;;70.20;26.33;;;2.60;90.40;;;;;;4971127;28;20040;-67
2021/12/10 00:32:36;;;;;;;72.45;24.42;;;2.60;90.40;;;;;;4968191;28;20081;-68
2021/12/10 00:35:15;;;;;;;75.32;26.70;;;2.60;90.00;;;;;;4966977;28;20030;-68
2021/12/10 00:37:41;;;;;;;70.00;23.92;;;2.60;89.80;;;;;;4967430;28;20023;-68
2021/12/10 00:40:09;;;;;;;68.65;25.55;;;2.60;89.60;;;;;;4965354;28;20033;-67
2021/12/10 00:42:35;;;;;;;75.47;26.08;;;2.70;89.80;;;;;;4964152;28;20353;-68
2021/12/10 00:45:04;;;;;;;74.20;27.38;;;2.70;89.40;;;;;;4968956;28;20736;-68
2021/12/10 00:47:30;;;;;;;66.40;26.02;;;2.70;89.00;;;;;;4962871;28;20070;-68
2021/12/10 00:49:56;;;;;;;76.57;28.38;;;2.70;89.20;;;;;;4962921;28;20137;-68
2021/12/10 00:52:22;;;;;;;72.68;25.35;;;2.60;89.70;;;;;;4962399;28;20110;-67
2021/12/10 00:54:48;;;;;;;73.90;25.83;;;2.60;90.00;;;;;;4964243;28;20039;-68
2021/12/10 00:57:15;;;;;;;67.88;25.30;;;2.60;89.90;;;;;;4964403;28;20038;-68
2021/12/10 00:59:43;;;;;;;76.10;27.70;;;2.60;90.20;;;;;;4963424;28;20030;-68
2021/12/10 01:02:11;;;;;;;82.63;29.30;;;2.60;90.20;;;;;;4968443;28;20030;-67
2021/12/10 01:04:41;;;;;;;70.53;24.27;;;2.60;90.00;;;;;;4966303;28;20030;-68
2021/12/10 01:07:12;;;;;;;81.20;27.67;;;2.60;90.00;;;;;;4959416;28;20054;-68
2021/12/10 01:09:41;;;;;;;72.78;25.58;;;2.60;90.00;;;;;;4948575;28;20041;-68
2021/12/10 01:12:13;;;;;;;69.93;25.25;;;2.70;89.80;;;;;;4963593;28;20022;-67
2021/12/10 01:23:49;;;;;;;72.70;25.53;;;2.60;89.90;;;;;;4960069;28;20039;-68
2021/12/10 01:28:51;;;;;;;77.40;27.38;;;2.50;90.00;;;;;;4968488;28;20150;-68
2021/12/10 01:31:17;;;;;;;69.15;23.85;;;2.50;90.00;;;;;;4960421;28;20158;-68
2021/12/10 01:33:44;;;;;;;74.53;27.95;;;2.50;90.20;;;;;;4962048;28;20100;-67
2021/12/10 01:36:10;;;;;;;81.00;26.02;;;2.50;90.50;;;;;;4961894;28;20034;-68
2021/12/10 01:38:43;;;;;;;63.28;23.80;;;2.50;90.70;;;;;;4961216;28;20121;-68
2021/12/10 01:41:13;;;;;;;68.55;25.00;;;2.60;90.40;;;;;;4965220;28;20592;-68
2021/12/10 01:43:42;;;;;;;75.45;25.02;;;2.60;90.30;;;;;;4964708;28;20066;-68
2021/12/10 01:46:12;;;;;;;69.05;24.92;;;2.70;90.40;;;;;;4960752;28;20694;-68
2021/12/10 01:48:51;;;;;;;78.40;25.98;;;2.60;90.30;;;;;;4960965;28;20042;-67
2021/12/10 01:51:21;;;;;;;80.43;26.55;;;2.70;90.10;;;;;;4961176;28;20058;-68
2021/12/10 01:53:49;;;;;;;70.55;24.92;;;2.70;89.70;;;;;;4965447;28;20051;-68
2021/12/10 01:56:22;;;;;;;65.00;23.35;;;2.70;89.90;;;;;;4964699;28;20062;-68
2021/12/10 01:58:49;;;;;;;73.50;27.27;;;2.80;90.00;;;;;;4961236;28;20034;-68
2021/12/10 02:01:26;;;;;;;69.82;25.13;;;2.70;90.10;;;;;;4963330;28;20141;-67
2021/12/10 02:03:53;;;;;;;66.70;24.05;;;2.80;89.80;;;;;;4955731;28;20150;-68
2021/12/10 02:06:20;;;;;;;74.25;25.20;;;2.80;89.70;;;;;;4959454;28;20047;-68
2021/12/10 02:08:46;;;;;;;75.00;26.00;;;2.80;89.60;;;;;;4965332;28;20074;-67
2021/12/10 02:11:13;;;;;;;74.18;26.45;;;2.80;89.80;;;;;;4961459;28;20039;-68
2021/12/10 02:13:39;;;;;;;65.57;24.58;;;2.80;90.00;;;;;;4962126;28;20654;-68
2021/12/10 02:16:06;;;;;;;79.72;26.08;;;2.80;90.10;;;;;;4961268;28;20097;-68
2021/12/10 02:18:32;;;;;;;68.25;24.60;;;2.80;89.90;;;;;;4960735;28;20893;-66
2021/12/10 02:21:01;;;;;;;79.15;28.17;;;2.80;90.00;;;;;;4965422;28;20053;-68
2021/12/10 02:23:32;;;;;;;75.63;26.48;;;2.80;90.20;;;;;;4963768;28;20030;-68
2021/12/10 02:26:02;;;;;;;69.57;25.75;;;2.80;90.30;;;;;;4959740;28;20073;-68
2021/12/10 02:28:29;;;;;;;72.97;25.27;;;2.80;90.30;;;;;;4964816;28;20112;-69
2021/12/10 02:30:55;;;;;;;79.72;27.52;;;2.80;90.20;;;;;;4962888;28;20042;-69
2021/12/10 02:33:22;;;;;;;70.70;25.92;;;2.80;90.30;;;;;;4963894;28;20042;-69
2021/12/10 02:35:48;;;;;;;69.88;25.67;;;2.80;90.00;;;;;;4968746;28;20042;-69
2021/12/10 02:38:16;;;;;;;67.55;25.98;;;2.80;90.40;;;;;;4961258;28;20042;-68
2021/12/10 02:40:43;;;;;;;80.70;27.25;;;2.80;90.30;;;;;;4966923;28;20118;-68
2021/12/10 02:43:12;;;;;;;74.55;25.63;;;2.80;90.20;;;;;;4963519;28;20035;-68
2021/12/10 02:45:44;;;;;;;79.25;27.92;;;2.80;90.30;;;;;;4959219;28;20050;-67
2021/12/10 02:48:10;;;;;;;73.30;25.48;;;2.80;90.40;;;;;;4959358;28;20030;-67
2021/12/10 02:50:37;;;;;;;68.93;24.65;;;2.80;90.10;;;;;;4961636;28;20141;-68
2021/12/10 02:53:05;;;;;;;66.55;25.00;;;2.80;90.00;;;;;;4964281;28;20025;-68
2021/12/10 02:55:32;;;;;;;66.43;25.60;;;2.80;90.10;;;;;;4962743;28;20295;-68
2021/12/10 02:58:04;;;;;;;68.07;26.05;;;2.80;90.20;;;;;;4959808;28;20520;-68
2021/12/10 03:00:38;;;;;;;80.53;27.08;;;2.80;90.20;;;;;;4960793;28;20043;-68
2021/12/10 03:03:04;;;;;;;76.65;26.17;;;2.80;90.30;;;;;;4962079;28;20470;-67
2021/12/10 03:05:30;;;;;;;84.07;26.42;;;2.70;90.50;;;;;;4963146;28;20138;-67
2021/12/10 03:07:57;;;;;;;70.72;26.02;;;2.80;90.60;;;;;;4967807;28;20034;-67
2021/12/10 03:10:28;;;;;;;76.47;25.73;;;2.80;90.40;;;;;;4963098;28;20554;-68
2021/12/10 03:12:54;;;;;;;76.63;27.08;;;2.80;90.50;;;;;;4962834;28;20667;-67
2021/12/10 03:15:22;;;;;;;79.50;27.15;;;2.90;90.50;;;;;;4961509;28;20065;-67
2021/12/10 03:17:49;;;;;;;77.18;27.55;;;2.90;90.40;;;;;;4964281;28;20050;-67
2021/12/10 03:20:19;;;;;;;83.40;26.30;;;2.90;90.40;;;;;;4981976;28;20027;-68
2021/12/10 03:22:45;;;;;;;73.53;26.00;;;2.90;90.50;;;;;;4967899;28;20483;-66
2021/12/10 03:25:13;;;;;;;73.72;25.42;;;2.90;90.30;;;;;;4974070;28;20035;-67
2021/12/10 03:27:40;;;;;;;80.47;25.98;;;2.80;90.50;;;;;;4965387;28;20046;-67
2021/12/10 03:30:11;;;;;;;77.22;27.05;;;2.90;90.30;;;;;;4959935;28;20069;-68
2021/12/10 03:32:39;;;;;;;75.20;26.05;;;2.80;90.10;;;;;;4970672;28;20056;-67
2021/12/10 03:35:13;;;;;;;84.53;27.98;;;2.90;90.20;;;;;;4967888;28;20039;-67
2021/12/10 03:37:40;;;;;;;76.30;27.30;;;2.80;90.40;;;;;;4967468;28;20034;-67
2021/12/10 03:40:09;;;;;;;72.88;26.42;;;2.80;90.30;;;;;;4965837;28;20050;-68
2021/12/10 03:42:35;;;;;;;72.63;26.85;;;2.90;90.30;;;;;;4964930;28;20122;-67
2021/12/10 03:45:02;;;;;;;79.28;28.30;;;2.80;90.20;;;;;;4965939;28;20791;-67
2021/12/10 03:47:29;;;;;;;72.32;25.48;;;2.90;90.30;;;;;;4968041;28;20054;-67
2021/12/10 03:49:55;;;;;;;77.53;26.13;;;2.90;90.30;;;;;;4971094;28;20026;-67
2021/12/10 03:52:21;;;;;;;79.88;25.83;;;2.90;90.30;;;;;;4966913;28;20039;-67
2021/12/10 03:54:47;;;;;;;85.95;28.92;;;2.90;90.00;;;;;;4966082;28;20824;-67
2021/12/10 03:57:13;;;;;;;73.97;25.67;;;3.00;89.90;;;;;;4962091;28;20129;-66
2021/12/10 03:59:39;;;;;;;76.10;25.73;;;3.00;90.00;;;;;;4966144;28;20030;-67
2021/12/10 04:02:08;;;;;;;85.43;28.08;;;2.90;90.00;;;;;;4968772;28;20026;-67
2021/12/10 04:04:48;;;;;;;72.85;23.88;;;2.90;90.10;;;;;;4966087;28;20030;-68
2021/12/10 04:07:19;;;;;;;74.80;25.42;;;2.90;90.10;;;;;;4962697;28;20043;-67
2021/12/10 04:09:45;;;;;;;84.82;28.17;;;2.90;90.10;;;;;;4968037;28;20065;-67
2021/12/10 04:12:11;;;;;;;72.78;25.08;;;3.00;90.00;;;;;;4963932;28;20116;-67
2021/12/10 04:14:39;;;;;;;69.90;26.33;;;2.90;90.00;;;;;;4969829;28;20047;-67
2021/12/10 04:17:06;;;;;;;73.28;25.77;;;3.00;90.00;;;;;;4967818;28;20034;-67
2021/12/10 04:19:34;;;;;;;75.55;24.80;;;2.90;90.10;;;;;;4966533;28;20034;-66
2021/12/10 04:22:01;;;;;;;74.97;26.85;;;2.90;90.00;;;;;;4964908;28;20030;-67
2021/12/10 04:24:30;;;;;;;74.97;26.42;;;3.00;90.00;;;;;;4963355;28;20184;-66
2021/12/10 04:26:58;;;;;;;74.70;26.13;;;3.00;89.90;;;;;;4959367;28;20134;-62
2021/12/10 04:29:24;;;;;;;76.22;25.60;;;2.90;90.10;;;;;;4960831;28;20060;-62
2021/12/10 04:31:56;;;;;;;80.07;26.70;;;2.90;90.20;;;;;;4963029;28;20058;-62
2021/12/10 04:34:23;;;;;;;81.10;27.15;;;3.00;90.20;;;;;;4962893;28;20038;-62
2021/12/10 04:36:51;;;;;;;81.45;28.75;;;3.00;89.90;;;;;;4963471;28;20044;-62
2021/12/10 04:39:17;;;;;;;84.90;30.20;;;3.00;89.10;;;;;;4960103;28;20049;-66
2021/12/10 04:41:43;;;;;;;85.50;28.23;;;3.00;89.40;;;;;;4964587;28;20158;-67
2021/12/10 04:44:09;;;;;;;81.30;28.15;;;2.90;89.60;;;;;;4968477;28;20027;-67
2021/12/10 04:46:35;;;;;;;83.85;27.08;;;2.90;89.60;;;;;;4964693;28;20089;-67
2021/12/10 04:49:06;;;;;;;74.60;25.08;;;2.90;89.80;;;;;;4968112;28;20034;-67
2021/12/10 04:51:38;;;;;;;80.20;27.83;;;2.90;90.00;;;;;;4962977;28;20170;-65
2021/12/10 04:54:06;;;;;;;94.18;29.90;;;3.00;90.00;;;;;;4975992;28;20039;-66
2021/12/10 04:56:32;;;;;;;96.75;30.70;;;3.00;90.00;;;;;;4968137;28;20041;-66
2021/12/10 04:59:00;;;;;;;85.60;28.48;;;2.90;90.00;;;;;;4963392;28;20030;-68
2021/12/10 05:01:28;;;;;;;75.85;26.00;;;2.90;90.10;;;;;;4963721;28;20057;-67
2021/12/10 05:03:54;;;;;;;82.68;28.17;;;2.90;90.20;;;;;;4965912;28;20032;-68
2021/12/10 05:06:19;;;;;;;84.03;29.33;;;2.90;90.30;;;;;;4966234;28;20042;-67
2021/12/10 05:08:46;;;;;;;86.78;28.92;;;3.00;90.20;;;;;;4966327;28;20046;-66
2021/12/10 05:11:13;;;;;;;86.57;30.08;;;2.90;90.00;;;;;;4967901;28;20084;-67
2021/12/10 05:13:42;;;;;;;85.68;27.10;;;2.90;90.10;;;;;;4964927;28;20089;-66
2021/12/10 05:16:09;;;;;;;86.60;28.50;;;2.90;90.00;;;;;;4965035;28;20096;-66
2021/12/10 05:18:39;;;;;;;81.05;26.20;;;2.90;90.20;;;;;;4963652;28;20379;-67
2021/12/10 05:21:08;;;;;;;84.60;27.88;;;2.90;90.20;;;;;;4958277;28;20121;-67
2021/12/10 05:23:34;;;;;;;96.28;30.65;;;2.90;90.50;;;;;;4967075;28;20042;-67
2021/12/10 05:26:00;;;;;;;85.57;27.88;;;2.90;90.50;;;;;;4968619;28;20026;-65
2021/12/10 05:28:27;;;;;;;104.00;31.00;;;2.90;90.40;;;;;;4965693;28;20197;-67
2021/12/10 05:30:55;;;;;;;79.22;27.63;;;2.90;90.40;;;;;;4964988;28;20037;-65
2021/12/10 05:33:24;;;;;;;87.53;28.40;;;2.90;90.30;;;;;;4959641;28;20042;-67
2021/12/10 05:35:50;;;;;;;77.68;27.60;;;2.90;90.40;;;;;;4963406;28;20450;-67
2021/12/10 05:38:18;;;;;;;82.28;27.83;;;2.90;90.20;;;;;;4964066;28;20042;-67
2021/12/10 05:40:50;;;;;;;79.43;27.38;;;2.90;90.30;;;;;;4967727;28;20053;-66
2021/12/10 05:43:17;;;;;;;85.55;28.67;;;2.80;90.20;;;;;;4964402;28;20150;-66
2021/12/10 05:45:43;;;;;;;78.40;26.30;;;2.80;90.40;;;;;;4962132;28;20510;-67
2021/12/10 05:48:10;;;;;;;82.70;28.20;;;2.80;90.60;;;;;;4961699;28;20039;-67
2021/12/10 05:50:36;;;;;;;82.30;27.67;;;2.90;90.60;;;;;;4965091;28;20137;-67
2021/12/10 05:53:03;;;;;;;84.13;27.98;;;2.90;90.40;;;;;;4963392;28;20037;-67
2021/12/10 05:55:29;;;;;;;89.13;29.05;;;2.90;90.60;;;;;;4965468;28;20159;-67
2021/12/10 05:57:55;;;;;;;83.07;26.63;;;2.90;90.20;;;;;;4947513;28;20553;-67
2021/12/10 06:00:26;;;;;;;80.80;29.02;;;3.00;90.20;;;;;;4962273;28;20065;-67
2021/12/10 06:02:52;;;;;;;91.43;29.40;;;3.00;90.10;;;;;;4958298;28;20026;-67
2021/12/10 06:05:18;;;;;;;72.93;26.35;;;3.00;90.30;;;;;;4964921;28;20049;-66
2021/12/10 06:07:44;;;;;;;81.30;30.38;;;3.00;90.20;;;;;;4962595;28;20031;-67
2021/12/10 06:10:11;;;;;;;84.32;28.77;;;2.90;90.50;;;;;;4962153;28;20049;-67
2021/12/10 06:12:37;;;;;;;82.18;26.95;;;3.00;90.70;;;;;;4961603;28;20146;-66
2021/12/10 06:15:05;;;;;;;95.72;31.23;;;3.00;90.70;;;;;;4958839;28;20019;-67
2021/12/10 06:17:31;;;;;;;84.75;29.92;;;3.00;90.80;;;;;;4960075;28;20984;-67
2021/12/10 06:19:56;;;;;;;83.30;27.85;;;3.00;90.70;;;;;;4959526;28;20023;-67
2021/12/10 06:22:22;;;;;;;87.22;27.88;;;3.00;90.70;;;;;;4964165;28;20479;-67
2021/12/10 06:24:48;;;;;;;72.40;25.65;;;3.00;90.60;;;;;;4960357;28;20142;-67
2021/12/10 06:27:14;;;;;;;78.10;26.40;;;3.00;90.60;;;;;;4959704;28;20487;-67
2021/12/10 06:29:42;;;;;;;79.85;26.50;;;3.00;90.60;;;;;;4960838;28;20042;-67
2021/12/10 06:32:09;;;;;;;75.50;27.83;;;3.00;90.60;;;;;;4960341;28;20121;-67
2021/12/10 06:34:36;;;;;;;90.25;28.63;;;3.10;90.30;;;;;;4960227;28;20041;-67
2021/12/10 06:37:02;;;;;;;80.90;25.75;;;3.00;90.30;;;;;;4961101;28;20031;-67
2021/12/10 06:39:28;;;;;;;78.82;27.17;;;3.00;90.60;;;;;;4964001;28;20570;-67
2021/12/10 06:41:54;;;;;;;82.30;26.90;;;3.00;90.70;;;;;;4960598;28;20031;-67
2021/12/10 06:44:22;;;;;;;85.70;27.77;;;2.90;90.90;;;;;;4960273;28;20041;-65
2021/12/10 06:46:48;;;;;;;83.43;27.00;;;2.90;90.80;;;;;;4962997;28;20035;-69
2021/12/10 06:49:15;;;;;;;89.25;27.33;;;3.00;90.70;;;;;;4961688;28;20035;-67
2021/12/10 06:51:41;;;;;;;72.15;25.42;;;3.00;90.80;;;;;;4960509;28;20042;-69
2021/12/10 06:54:07;;;;;;;77.53;25.45;;;3.00;90.70;;;;;;4963244;28;20038;-68
2021/12/10 06:56:35;;;;;;;83.65;28.63;;;3.00;90.70;;;;;;4961933;28;20093;-68
2021/12/10 06:59:02;;;;;;;98.00;28.35;;;3.00;90.80;;;;;;4962724;28;20114;-67
2021/12/10 07:01:35;;;;;;;87.97;28.73;;;3.00;90.70;;;;;;4975022;28;20054;-68
2021/12/10 07:04:04;;;;;;;91.95;29.83;;;3.00;90.50;;;;;;4962992;28;20487;-67
2021/12/10 07:06:31;;;;;;;94.80;29.38;;;3.00;90.10;;;;;;4962780;28;20073;-66
2021/12/10 07:09:01;;;;;;;91.65;30.95;;;3.00;90.10;;;;;;4946008;28;20597;-67
2021/12/10 07:11:27;;;;;;;84.15;27.45;;;3.00;90.20;;;;;;4966579;28;20043;-69
2021/12/10 07:13:56;;;;;;;89.93;27.80;;;3.00;90.30;;;;;;4963522;28;20041;-68
2021/12/10 07:16:24;;;;;;;80.57;27.05;;;3.00;90.30;;;;;;4963888;28;20038;-68
2021/12/10 07:18:52;;;;;;;96.90;28.35;;;3.00;90.50;;;;;;4963847;28;20054;-69
2021/12/10 07:21:18;;;;;;;78.15;26.55;;;3.00;90.60;;;;;;4964275;28;20061;-68
2021/12/10 07:23:45;;;;;;;79.50;26.23;;;3.00;90.60;;;;;;4971261;28;20138;-69
2021/12/10 07:26:13;;;;;;;84.13;27.20;;;3.10;90.60;;;;;;4964541;28;20030;-69
2021/12/10 07:28:40;;;;;;;93.88;28.58;;;3.10;90.60;;;;;;4963039;28;20499;-69
2021/12/10 07:31:07;;;;;;;99.28;31.10;;;3.10;90.30;;;;;;4959116;28;20126;-69
2021/12/10 07:33:33;;;;;;;90.82;28.00;;;3.20;90.00;;;;;;4961840;28;20066;-69
2021/12/10 07:35:59;;;;;;;93.18;30.77;;;3.10;90.00;;;;;;4961963;28;20133;-64
2021/12/10 07:38:25;;;;;;;92.93;29.13;;;3.10;90.10;;;;;;4963373;28;20023;-64
2021/12/10 07:40:51;;;;;;;93.97;28.50;;;2.90;90.20;;;;;;4963161;28;20836;-64
2021/12/10 07:43:18;;;;;;;92.22;29.23;;;2.90;90.50;;;;;;4964426;28;20041;-64
2021/12/10 07:45:46;;;;;;;83.70;28.48;;;2.80;90.40;;;;;;4963364;28;20120;-64
2021/12/10 07:48:16;;;;;;;93.20;30.05;;;2.70;90.70;;;;;;4961461;28;20101;-64
2021/12/10 07:50:52;;;;;;;87.22;27.38;;;2.70;90.80;;;;;;4962742;28;20046;-64
2021/12/10 07:53:19;;;;;;;84.68;27.13;;;2.70;90.80;;;;;;4962784;28;20170;-64
2021/12/10 07:55:46;;;;;;;89.55;27.45;;;2.70;91.30;;;;;;4963236;28;20049;-64
2021/12/10 07:58:11;;;;;;;96.53;29.40;;;2.70;91.10;;;;;;4967697;28;20034;-64
2021/12/10 08:00:40;;;;;;;102.40;30.42;;;2.70;90.70;;;;;;4965965;28;20035;-63
2021/12/10 08:03:06;;;;;;;85.20;29.48;;;2.80;90.80;;;;;;4960779;28;20727;-64
2021/12/10 08:05:33;;;;;;;81.80;28.33;;;2.80;90.90;;;;;;4962342;28;20075;-64
2021/12/10 08:08:00;;;;;;;95.47;30.42;;;2.70;90.80;;;;;;4961812;28;20214;-64
2021/12/10 08:10:27;;;;;;;94.90;28.13;;;2.80;91.10;;;;;;4962903;28;20043;-64
2021/12/10 08:12:54;;;;;;;87.93;29.30;;;2.90;90.90;;;;;;4962264;28;20045;-64
2021/12/10 08:15:19;;;;;;;88.18;27.00;;;3.00;90.60;;;;;;4961498;28;20074;-63
2021/12/10 08:17:46;;;;;;;87.35;27.35;;;3.00;90.40;;;;;;4962428;28;20130;-64
2021/12/10 08:20:18;;;;;;;84.43;27.15;;;3.00;90.60;;;;;;4960952;28;20031;-64
2021/12/10 08:22:44;;;;;;;80.88;25.23;;;3.10;90.70;;;;;;4960011;28;20047;-64
2021/12/10 08:25:10;;;;;;;87.30;28.20;;;3.10;90.70;;;;;;4962197;28;20034;-64
2021/12/10 08:27:37;;;;;;;95.25;30.15;;;3.10;90.60;;;;;;4961650;28;20038;-64
2021/12/10 08:30:09;;;;;;;107.13;30.73;;;3.20;90.40;;;;;;4960595;28;20031;-64
2021/12/10 08:32:35;;;;;;;94.55;30.65;;;3.30;90.20;;;;;;4961999;28;20490;-64
2021/12/10 08:35:04;;;;;;;90.63;27.95;;;3.40;90.00;;;;;;4960710;28;20031;-64
2021/12/10 08:37:30;;;;;;;86.55;28.73;;;3.30;89.70;;;;;;4961912;28;20042;-64
2021/12/10 08:39:56;;;;;;;97.80;30.17;;;3.30;90.00;;;;;;4962436;28;20376;-64
2021/12/10 08:42:22;;;;;;;92.70;30.27;;;3.30;90.00;;;;;;4961570;28;20514;-64
2021/12/10 08:44:48;;;;;;;85.47;27.40;;;3.30;89.70;;;;;;4959595;28;20039;-64
2021/12/10 08:47:15;;;;;;;95.40;29.30;;;3.30;89.90;;;;;;4960457;28;20046;-64
2021/12/10 08:49:42;;;;;;;96.45;29.90;;;3.40;90.20;;;;;;4960023;28;20134;-64
2021/12/10 08:52:10;;;;;;;96.35;28.73;;;3.40;89.60;;;;;;4963333;28;20129;-64
2021/12/10 08:54:37;;;;;;;92.03;28.45;;;3.40;89.50;;;;;;4961544;28;20057;-64
2021/12/10 08:57:05;;;;;;;98.18;30.95;;;3.40;89.20;;;;;;4961591;28;20030;-64
2021/12/10 08:59:31;;;;;;;88.63;28.33;;;3.40;89.10;;;;;;4963787;28;20446;-64
2021/12/10 09:02:00;;;;;;;84.57;27.35;;;3.30;89.50;;;;;;4962601;28;20030;-64
2021/12/10 09:04:29;;;;;;;81.35;26.77;;;3.30;90.00;;;;;;4960928;28;20067;-64
2021/12/10 09:07:00;;;;;;;86.65;28.77;;;3.30;90.30;;;;;;4961412;28;20184;-64
2021/12/10 09:09:27;;;;;;;90.18;29.15;;;3.40;90.20;;;;;;4960621;28;20117;-62
2021/12/10 09:11:56;;;;;;;88.55;28.58;;;3.50;89.30;;;;;;4961901;28;20429;-63
2021/12/10 09:14:28;;;;;;;87.03;28.80;;;3.50;88.90;;;;;;4960438;28;20050;-63
2021/12/10 09:16:56;;;;;;;80.88;26.63;;;3.50;89.50;;;;;;4959137;28;20023;-63
2021/12/10 09:19:22;;;;;;;86.00;28.20;;;3.50;89.70;;;;;;4960221;28;20117;-64
2021/12/10 09:21:49;;;;;;;79.28;26.27;;;3.50;88.20;;;;;;4966125;28;20070;-63
2021/12/10 09:24:18;;;;;;;88.05;27.63;;;3.60;88.50;;;;;;4962907;28;20105;-64
2021/12/10 09:26:48;;;;;;;78.85;27.67;;;3.50;89.00;;;;;;4960091;28;20047;-63
2021/12/10 09:29:15;;;;;;;80.13;27.30;;;3.50;89.20;;;;;;4961853;28;20097;-63
2021/12/10 09:31:42;;;;;;;87.65;28.73;;;3.50;89.30;;;;;;4960508;28;20046;-63
2021/12/10 09:34:10;;;;;;;90.38;29.00;;;3.50;89.10;;;;;;4959555;28;20031;-63
2021/12/10 09:36:37;;;;;;;89.90;26.83;;;3.50;89.60;;;;;;4961027;28;20134;-64
2021/12/10 09:39:06;;;;;;;85.68;26.80;;;3.50;89.70;;;;;;4959812;28;20035;-64
2021/12/10 09:41:32;;;;;;;82.97;26.80;;;3.50;89.80;;;;;;4959449;28;20088;-64
2021/12/10 09:43:57;;;;;;;81.70;27.52;;;3.50;89.80;;;;;;4961817;28;20424;-64
2021/12/10 09:46:23;;;;;;;85.10;27.10;;;3.60;90.00;;;;;;4959751;28;20035;-64
2021/12/10 09:48:49;;;;;;;73.82;26.65;;;3.60;90.10;;;;;;4959731;28;20588;-64
2021/12/10 09:51:21;;;;;;;79.63;26.50;;;3.60;90.00;;;;;;4961390;28;20042;-65
2021/12/10 09:53:50;;;;;;;86.10;27.75;;;3.70;90.10;;;;;;4963914;28;20114;-65
2021/12/10 09:56:18;;;;;;;105.35;32.42;;;3.70;89.40;;;;;;4966636;28;20041;-65
2021/12/10 09:58:44;;;;;;;89.60;28.63;;;3.70;89.60;;;;;;4960083;28;20030;-63
2021/12/10 10:01:21;;;;;;;85.15;29.30;;;3.80;89.60;;;;;;4960659;28;20066;-64
2021/12/10 10:03:49;;;;;;;80.65;25.90;;;3.80;89.80;;;;;;4958204;28;20030;-64
2021/12/10 10:06:15;;;;;;;85.60;28.75;;;3.80;89.60;;;;;;4957866;28;20502;-64
2021/12/10 10:08:42;;;;;;;82.18;27.90;;;3.90;89.50;;;;;;4960515;28;20034;-61
2021/12/10 10:11:17;;;;;;;85.20;28.05;;;3.90;89.60;;;;;;4961777;28;20101;-64
2021/12/10 10:13:45;;;;;;;79.93;26.45;;;4.00;88.70;;;;;;4956950;28;20046;-64
2021/12/10 10:16:11;;;;;;;81.25;25.27;;;4.00;88.20;;;;;;4958231;28;20117;-64
2021/12/10 10:18:39;;;;;;;78.88;26.42;;;4.00;88.40;;;;;;4960883;28;20046;-64
2021/12/10 10:21:13;;;;;;;87.07;25.83;;;4.00;88.40;;;;;;4961390;28;20035;-64
2021/12/10 10:23:41;;;;;;;78.30;27.40;;;4.00;88.60;;;;;;4959819;28;20510;-63
2021/12/10 10:26:12;;;;;;;81.68;27.45;;;4.00;87.80;;;;;;4960128;28;20035;-64
2021/12/10 10:28:38;;;;;;;81.30;26.67;;;4.10;88.00;;;;;;4957043;28;20089;-63
2021/12/10 10:31:09;;;;;;;98.65;28.88;;;4.10;88.00;;;;;;4963006;28;20148;-63
2021/12/10 10:33:37;;;;;;;88.57;27.92;;;4.10;88.00;;;;;;4961120;28;20054;-62
2021/12/10 10:36:17;;;;;;;91.13;27.80;;;4.00;87.00;;;;;;4961313;28;20035;-63
2021/12/10 10:38:46;;;;;;;91.57;28.63;;;4.00;87.70;;;;;;4961081;28;20054;-63
2021/12/10 10:41:12;;;;;;;82.95;25.25;;;4.00;88.10;;;;;;4959952;28;20038;-63
2021/12/10 10:43:38;;;;;;;81.97;27.23;;;4.00;88.50;;;;;;4959166;28;20027;-63
2021/12/10 10:46:05;;;;;;;80.50;26.48;;;4.00;88.00;;;;;;4960575;28;20035;-63
2021/12/10 10:48:31;;;;;;;85.65;26.85;;;4.00;87.60;;;;;;4960123;28;20613;-63
2021/12/10 10:51:04;;;;;;;81.45;26.38;;;3.80;88.50;;;;;;4960204;28;20112;-63
2021/12/10 10:53:43;;;;;;;79.45;25.13;;;3.80;89.10;;;;;;4957929;28;20035;-63
2021/12/10 10:56:24;;;;;;;76.72;25.98;;;3.80;88.70;;;;;;4959207;28;20046;-64
2021/12/10 10:58:55;;;;;;;79.78;26.88;;;3.80;88.80;;;;;;4961255;28;20486;-63
2021/12/10 11:01:39;;;;;;;79.88;25.40;;;3.80;88.40;;;;;;4958818;28;20262;-62
2021/12/10 11:04:18;;;;;;;81.72;27.38;;;4.00;88.70;;;;;;4955863;28;20031;-62
2021/12/10 11:06:49;;;;;;;79.25;24.75;;;4.00;88.40;;;;;;4958899;28;20057;-62
2021/12/10 11:09:24;;;;;;;75.70;25.77;;;4.10;88.00;;;;;;4955520;28;20407;-62
2021/12/10 11:11:56;;;;;;;71.95;24.60;;;4.10;87.70;;;;;;4960793;28;20043;-62
2021/12/10 11:14:24;;;;;;;82.80;26.08;;;4.10;87.50;;;;;;4955598;28;20066;-63
2021/12/10 11:17:01;;;;;;;69.78;25.30;;;4.10;87.90;;;;;;4956930;28;20043;-62
2021/12/10 11:19:29;;;;;;;79.18;26.20;;;4.20;87.60;;;;;;4957885;28;20702;-63
2021/12/10 11:22:15;;;;;;;69.70;23.70;;;4.10;87.30;;;;;;4957396;28;20664;-64
2021/12/10 11:24:46;;;;;;;71.88;25.70;;;4.10;87.50;;;;;;4952523;28;20242;-64
2021/12/10 11:27:22;;;;;;;71.72;24.35;;;4.20;87.70;;;;;;4958982;28;20039;-63
2021/12/10 11:29:52;;;;;;;77.38;27.27;;;4.20;88.20;;;;;;4968663;28;20763;-63
2021/12/10 11:32:35;;;;;;;82.95;26.27;;;4.20;88.10;;;;;;4958562;28;20043;-63
2021/12/10 11:35:11;;;;;;;79.57;26.08;;;4.00;88.10;;;;;;4959083;28;20159;-63
2021/12/10 11:37:45;;;;;;;77.97;24.98;;;4.00;88.50;;;;;;4956613;28;20038;-63
2021/12/10 11:40:38;;;;;;;75.40;26.00;;;4.00;88.90;;;;;;4964477;28;20035;-63
2021/12/10 11:43:20;;;;;;;82.03;24.80;;;4.00;88.60;;;;;;4963271;28;20035;-63
2021/12/10 11:48:57;;;;;;;80.22;25.45;;;4.10;88.70;;;;;;4958931;28;20450;-63
2021/12/10 11:51:44;;;;;;;77.82;23.52;;;4.00;88.10;;;;;;4962383;28;20041;-63
2021/12/10 11:54:27;;;;;;;76.20;24.63;;;4.10;88.70;;;;;;4962483;28;20035;-65
2021/12/10 11:57:08;;;;;;;67.75;24.02;;;4.00;88.70;;;;;;4963203;28;21572;-63
2021/12/10 11:59:40;;;;;;;72.13;23.98;;;4.10;89.10;;;;;;4960248;28;20038;-63
2021/12/10 12:02:14;;;;;;;76.53;25.52;;;4.00;89.00;;;;;;4960650;28;20060;-63
2021/12/10 12:04:53;;;;;;;71.25;24.13;;;4.10;88.60;;;;;;4963739;28;20035;-63
2021/12/10 12:07:33;;;;;;;73.22;24.63;;;4.10;88.80;;;;;;4963602;28;20604;-63
2021/12/10 12:10:21;;;;;;;67.53;23.45;;;4.10;89.00;;;;;;4961723;28;20569;-63
2021/12/10 12:12:50;;;;;;;76.43;24.25;;;4.20;88.90;;;;;;4961951;28;20154;-64
2021/12/10 12:15:30;;;;;;;75.40;25.15;;;4.20;88.60;;;;;;4962399;28;20195;-63
2021/12/10 12:18:09;;;;;;;73.10;24.52;;;4.10;88.80;;;;;;4961867;28;20121;-63
2021/12/10 12:20:54;;;;;;;74.50;24.80;;;4.20;88.40;;;;;;4959025;28;20026;-63
2021/12/10 12:26:19;;;;;;;85.22;28.52;;;4.20;88.40;;;;;;4963093;28;20629;-62
2021/12/10 12:28:49;;;;;;;80.00;26.20;;;4.20;88.80;;;;;;4961391;28;20853;-63
2021/12/10 12:31:17;;;;;;;84.22;26.75;;;4.10;88.70;;;;;;4969774;28;20930;-63
2021/12/10 12:34:07;;;;;;;77.53;25.30;;;4.00;88.70;;;;;;4960879;28;20031;-64
2021/12/10 12:36:51;;;;;;;75.50;25.20;;;3.90;89.40;;;;;;4956296;28;20063;-60
2021/12/10 12:39:29;;;;;;;72.00;24.48;;;3.90;90.00;;;;;;4963582;28;20770;-63
2021/12/10 12:41:55;;;;;;;84.55;26.35;;;3.70;90.20;;;;;;4961803;28;20027;-64
2021/12/10 12:44:30;;;;;;;77.47;26.10;;;3.80;89.70;;;;;;4960570;28;20804;-64
2021/12/10 12:47:12;;;;;;;66.95;23.45;;;3.80;89.70;;;;;;4960520;28;20042;-63
2021/12/10 12:49:38;;;;;;;67.80;23.85;;;3.90;90.00;;;;;;4958885;28;20058;-64
2021/12/10 12:52:10;;;;;;;68.65;23.92;;;3.90;89.80;;;;;;4961626;28;20101;-63
2021/12/10 12:54:41;;;;;;;72.88;23.67;;;3.90;89.50;;;;;;4958628;28;20043;-60
2021/12/10 12:57:09;;;;;;;58.85;22.48;;;4.00;90.20;;;;;;4961339;28;20030;-63
2021/12/10 12:59:36;;;;;;;73.35;24.25;;;4.00;89.50;;;;;;4960758;28;20045;-63
2021/12/10 13:02:07;;;;;;;64.53;23.92;;;4.10;89.60;;;;;;4961282;28;20019;-64
2021/12/10 13:04:41;;;;;;;69.78;24.38;;;4.10;89.60;;;;;;4962984;28;20035;-63